createdAt,value
2022-11-29T00:01:46.884Z,98226.14
2022-11-29T00:04:22.981Z,98226.09
2022-11-29T00:06:50.927Z,98235.05
2022-11-29T00:09:24.922Z,98239.17
2022-11-29T00:12:11.295Z,98239.27
2022-11-29T00:14:39.815Z,98237.83
2022-11-29T00:17:07.888Z,98237.61
2022-11-29T00:19:41.430Z,98229.08
2022-11-29T00:22:19.493Z,98225.17
2022-11-29T00:24:54.420Z,98223.73
2022-11-29T00:27:22.391Z,98224.31
2022-11-29T00:29:50.510Z,98226.80
2022-11-29T00:32:18.501Z,98221.77
2022-11-29T00:34:46.523Z,98222.75
2022-11-29T00:37:15.973Z,98224.52
2022-11-29T00:39:43.865Z,98221.55
2022-11-29T00:42:11.794Z,98220.41
2022-11-29T00:44:39.784Z,98220.40
2022-11-29T00:47:07.633Z,98223.15
2022-11-29T00:49:35.539Z,98222.79
2022-11-29T00:52:03.599Z,98226.52
2022-11-29T00:54:33.938Z,98229.88
2022-11-29T00:57:02.975Z,98234.80
2022-11-29T00:59:30.953Z,98229.84
2022-11-29T01:01:58.850Z,98232.08
2022-11-29T01:04:26.870Z,98229.58
2022-11-29T01:06:54.800Z,98234.95
2022-11-29T01:09:22.704Z,98232.25
2022-11-29T01:11:50.805Z,98232.55
2022-11-29T01:14:18.727Z,98229.25
2022-11-29T01:16:46.655Z,98228.06
2022-11-29T01:19:14.615Z,98226.23
2022-11-29T01:21:42.519Z,98226.03
2022-11-29T01:24:10.495Z,98222.78
2022-11-29T01:26:38.416Z,98222.63
2022-11-29T01:29:06.328Z,98218.64
2022-11-29T01:31:38.014Z,98215.30
2022-11-29T01:34:07.262Z,98212.45
2022-11-29T01:36:35.444Z,98213.54
2022-11-29T01:39:04.934Z,98210.57
2022-11-29T01:41:35.963Z,98209.20
2022-11-29T01:44:06.115Z,98207.90
2022-11-29T01:46:40.429Z,98197.17
2022-11-29T01:49:13.266Z,98199.95
2022-11-29T01:51:45.922Z,98204.08
2022-11-29T01:54:14.697Z,98203.29
2022-11-29T01:56:45.292Z,98206.36
2022-11-29T01:59:15.845Z,98204.31
2022-11-29T02:01:43.810Z,98201.51
2022-11-29T02:04:12.261Z,98199.95
2022-11-29T02:06:41.579Z,98204.27
2022-11-29T02:09:21.892Z,98203.33
2022-11-29T02:12:08.349Z,98204.34
2022-11-29T02:14:45.558Z,98204.04
2022-11-29T02:17:32.211Z,98204.81
2022-11-29T02:20:05.798Z,98199.89
2022-11-29T02:22:43.984Z,98201.88
2022-11-29T02:25:38.099Z,98203.40
2022-11-29T02:28:33.010Z,98202.01
2022-11-29T02:31:38.283Z,98204.65
2022-11-29T02:34:12.120Z,98202.73
2022-11-29T02:37:11.650Z,98208.25
2022-11-29T02:40:06.788Z,98208.79
2022-11-29T02:42:55.688Z,98206.19
2022-11-29T02:45:36.134Z,98206.89
2022-11-29T02:48:34.937Z,98208.59
2022-11-29T02:51:11.473Z,98210.73
2022-11-29T02:54:00.288Z,98213.45
2022-11-29T02:56:52.428Z,98216.69
2022-11-29T02:59:45.164Z,98214.93
2022-11-29T03:02:36.005Z,98215.10
2022-11-29T03:05:12.116Z,98223.52
2022-11-29T03:07:56.659Z,98225.18
2022-11-29T03:10:35.217Z,98227.90
2022-11-29T03:13:10.347Z,98228.84
2022-11-29T03:16:08.694Z,98230.05
2022-11-29T03:19:15.583Z,98234.11
2022-11-29T03:22:02.159Z,98233.87
2022-11-29T03:24:37.215Z,98234.73
2022-11-29T03:27:12.352Z,98231.27
2022-11-29T03:29:47.865Z,98233.27
2022-11-29T03:32:38.621Z,98230.82
2022-11-29T03:35:13.376Z,98234.25
2022-11-29T03:37:58.621Z,98233.12
2022-11-29T03:40:39.064Z,98234.71
2022-11-29T03:43:14.274Z,98237.84
2022-11-29T03:46:33.116Z,98241.41
2022-11-29T03:49:31.434Z,98243.19
2022-11-29T03:52:08.509Z,98243.27
2022-11-29T03:55:13.839Z,98245.92
2022-11-29T03:57:41.691Z,98249.65
2022-11-29T04:00:13.542Z,98250.70
2022-11-29T04:03:22.240Z,98248.80
2022-11-29T04:06:02.266Z,98250.02
2022-11-29T04:08:42.139Z,98251.08
2022-11-29T04:11:32.509Z,98249.45
2022-11-29T04:14:30.917Z,98250.34
2022-11-29T04:17:17.440Z,98253.31
2022-11-29T04:19:45.300Z,98256.70
2022-11-29T04:22:43.773Z,98253.19
2022-11-29T04:25:55.469Z,98266.16
2022-11-29T04:28:37.290Z,98268.80
2022-11-29T04:31:23.388Z,98269.30
2022-11-29T04:34:28.234Z,98275.80
2022-11-29T04:37:33.226Z,98281.64
2022-11-29T04:40:16.294Z,98283.59
2022-11-29T04:43:02.129Z,98283.64
2022-11-29T04:45:48.695Z,98286.47
2022-11-29T04:48:53.730Z,98290.98
2022-11-29T04:51:35.345Z,98287.12
2022-11-29T04:54:19.359Z,98286.46
2022-11-29T04:57:02.105Z,98284.19
2022-11-29T05:00:06.376Z,98288.31
2022-11-29T05:02:42.930Z,98291.41
2022-11-29T05:05:22.788Z,98293.48
2022-11-29T05:07:56.615Z,98297.27
2022-11-29T05:10:41.868Z,98301.42
2022-11-29T05:13:22.298Z,98305.88
2022-11-29T05:16:20.804Z,98304.89
2022-11-29T05:19:07.529Z,98306.81
2022-11-29T05:21:47.526Z,98306.48
2022-11-29T05:24:49.743Z,98310.56
2022-11-29T05:27:52.483Z,98312.82
2022-11-29T05:30:25.675Z,98316.70
2022-11-29T05:33:08.578Z,98319.20
2022-11-29T05:35:51.595Z,98324.64
2022-11-29T05:38:34.568Z,98326.05
2022-11-29T05:41:36.418Z,98328.57
2022-11-29T05:44:22.639Z,98333.95
2022-11-29T05:46:56.745Z,98336.27
2022-11-29T05:50:01.834Z,98344.67
2022-11-29T05:52:35.635Z,98346.80
2022-11-29T05:55:37.361Z,98346.05
2022-11-29T05:58:34.935Z,98345.13
2022-11-29T06:01:16.850Z,98345.96
2022-11-29T06:04:14.813Z,98353.02
2022-11-29T06:06:50.578Z,98356.89
2022-11-29T06:09:42.466Z,98362.19
2022-11-29T06:12:20.776Z,98366.58
2022-11-29T06:15:04.415Z,98369.27
2022-11-29T06:17:52.812Z,98366.10
2022-11-29T06:20:52.221Z,98367.04
2022-11-29T06:23:31.489Z,98369.78
2022-11-29T06:26:10.430Z,98369.48
2022-11-29T06:28:56.154Z,98373.67
2022-11-29T06:31:29.869Z,98381.52
2022-11-29T06:34:10.224Z,98383.17
2022-11-29T06:37:08.757Z,98384.08
2022-11-29T06:39:36.904Z,98388.04
2022-11-29T06:42:04.927Z,98389.30
2022-11-29T06:44:33.079Z,98392.05
2022-11-29T06:47:14.911Z,98392.84
2022-11-29T06:50:01.273Z,98395.55
2022-11-29T06:52:38.086Z,98397.59
2022-11-29T06:55:17.904Z,98406.23
2022-11-29T06:58:04.029Z,98406.25
2022-11-29T07:00:42.081Z,98408.40
2022-11-29T07:03:37.233Z,98404.56
2022-11-29T07:06:15.442Z,98406.07
2022-11-29T07:08:43.784Z,98408.02
2022-11-29T07:11:14.162Z,98405.34
2022-11-29T07:13:42.282Z,98405.03
2022-11-29T07:16:34.428Z,98407.77
2022-11-29T07:19:08.474Z,98411.15
2022-11-29T07:21:48.601Z,98406.85
2022-11-29T07:24:34.137Z,98407.92
2022-11-29T07:27:23.211Z,98410.41
2022-11-29T07:30:19.182Z,98414.30
2022-11-29T07:33:02.236Z,98417.23
2022-11-29T07:36:15.237Z,98417.40
2022-11-29T07:38:55.062Z,98420.96
2022-11-29T07:41:41.587Z,98420.01
2022-11-29T07:44:25.520Z,98421.14
2022-11-29T07:46:53.436Z,98422.89
2022-11-29T07:49:21.402Z,98421.42
2022-11-29T07:51:49.532Z,98418.59
2022-11-29T07:54:19.813Z,98418.55
2022-11-29T07:56:47.751Z,98417.59
2022-11-29T07:59:15.678Z,98421.83
2022-11-29T08:01:43.580Z,98423.83
2022-11-29T08:04:11.510Z,98426.44
2022-11-29T08:06:39.636Z,98422.33
2022-11-29T08:09:07.750Z,98421.45
2022-11-29T08:11:35.715Z,98421.05
2022-11-29T08:14:05.187Z,98419.33
2022-11-29T08:16:33.274Z,98420.20
2022-11-29T08:19:01.268Z,98423.59
2022-11-29T08:21:29.193Z,98426.03
2022-11-29T08:23:57.101Z,98424.64
2022-11-29T08:26:29.818Z,98426.61
2022-11-29T08:28:59.271Z,98426.43
2022-11-29T08:31:33.787Z,98432.61
2022-11-29T08:34:08.593Z,98440.60
2022-11-29T08:36:42.660Z,98443.89
2022-11-29T08:39:18.620Z,98449.09
2022-11-29T08:41:46.766Z,98448.80
2022-11-29T08:44:19.389Z,98449.73
2022-11-29T08:47:05.545Z,98445.29
2022-11-29T08:49:33.541Z,98441.05
2022-11-29T08:52:20.058Z,98445.23
2022-11-29T08:54:48.296Z,98449.29
2022-11-29T08:57:39.223Z,98446.98
2022-11-29T09:00:10.649Z,98447.87
2022-11-29T09:02:39.326Z,98447.63
2022-11-29T09:05:13.058Z,98449.73
2022-11-29T09:07:50.799Z,98443.98
2022-11-29T09:10:26.255Z,98444.11
2022-11-29T09:12:59.064Z,98444.97
2022-11-29T09:15:32.743Z,98449.55
2022-11-29T09:18:00.700Z,98449.31
2022-11-29T09:20:28.660Z,98448.36
2022-11-29T09:22:58.990Z,98454.73
2022-11-29T09:25:27.154Z,98453.36
2022-11-29T09:27:58.211Z,98451.69
2022-11-29T09:30:26.575Z,98448.36
2022-11-29T09:32:54.560Z,98444.73
2022-11-29T09:35:22.447Z,98444.42
2022-11-29T09:37:50.458Z,98447.70
2022-11-29T09:40:21.269Z,98446.51
2022-11-29T09:43:22.335Z,98446.75
2022-11-29T09:45:57.455Z,98447.63
2022-11-29T09:48:32.576Z,98444.30
2022-11-29T09:51:08.738Z,98445.57
2022-11-29T09:53:46.435Z,98444.45
2022-11-29T09:56:49.544Z,98443.46
2022-11-29T09:59:23.735Z,98442.23
2022-11-29T10:02:18.391Z,98439.98
2022-11-29T10:05:02.653Z,98439.90
2022-11-29T10:07:39.308Z,98438.05
2022-11-29T10:10:15.705Z,98434.13
2022-11-29T10:12:52.089Z,98437.73
2022-11-29T10:15:22.635Z,98432.05
2022-11-29T10:18:01.138Z,98436.21
2022-11-29T10:20:36.508Z,98438.67
2022-11-29T10:23:33.134Z,98434.05
2022-11-29T10:26:01.211Z,98437.59
2022-11-29T10:28:32.835Z,98431.67
2022-11-29T10:31:22.491Z,98437.52
2022-11-29T10:33:50.853Z,98437.25
2022-11-29T10:36:29.732Z,98437.61
2022-11-29T10:39:01.674Z,98433.59
2022-11-29T10:41:29.693Z,98436.46
2022-11-29T10:43:59.889Z,98433.42
2022-11-29T10:46:31.522Z,98433.91
2022-11-29T10:49:05.238Z,98433.63
2022-11-29T10:51:34.013Z,98432.50
2022-11-29T10:54:41.884Z,98424.54
2022-11-29T10:57:15.480Z,98425.38
2022-11-29T11:00:08.813Z,98422.73
2022-11-29T11:02:37.560Z,98427.75
2022-11-29T11:05:18.955Z,98425.05
2022-11-29T11:07:57.261Z,98425.81
2022-11-29T11:10:29.749Z,98424.50
2022-11-29T11:13:07.095Z,98431.56
2022-11-29T11:15:35.166Z,98432.24
2022-11-29T11:18:06.799Z,98433.52
2022-11-29T11:20:41.911Z,98434.95
2022-11-29T11:23:27.429Z,98439.08
2022-11-29T11:26:05.910Z,98437.52
2022-11-29T11:28:42.555Z,98437.02
2022-11-29T11:31:12.636Z,98438.27
2022-11-29T11:33:41.617Z,98436.89
2022-11-29T11:36:27.459Z,98434.92
2022-11-29T11:38:58.437Z,98432.93
2022-11-29T11:41:49.422Z,98432.34
2022-11-29T11:44:52.594Z,98432.31
2022-11-29T11:47:29.873Z,98430.23
2022-11-29T11:50:00.710Z,98427.74
2022-11-29T11:52:53.395Z,98434.18
2022-11-29T11:55:21.490Z,98430.61
2022-11-29T11:58:13.888Z,98433.45
2022-11-29T12:01:03.904Z,98424.46
2022-11-29T12:04:10.388Z,98421.42
2022-11-29T12:06:52.316Z,98421.92
2022-11-29T12:09:35.410Z,98420.31
2022-11-29T12:12:10.128Z,98415.40
2022-11-29T12:14:55.792Z,98411.37
2022-11-29T12:17:34.511Z,98407.55
2022-11-29T12:20:41.004Z,98408.70
2022-11-29T12:23:09.062Z,98406.73
2022-11-29T12:25:56.068Z,98412.91
2022-11-29T12:28:34.393Z,98414.02
2022-11-29T12:31:19.263Z,98416.91
2022-11-29T12:34:24.484Z,98419.14
2022-11-29T12:37:20.165Z,98420.86
2022-11-29T12:40:11.802Z,98428.00
2022-11-29T12:42:54.905Z,98428.88
2022-11-29T12:45:25.907Z,98426.74
2022-11-29T12:47:53.819Z,98425.68
2022-11-29T12:50:21.755Z,98421.96
2022-11-29T12:53:14.524Z,98425.65
2022-11-29T12:55:58.986Z,98430.65
2022-11-29T12:58:51.653Z,98427.46
2022-11-29T13:01:47.993Z,98435.66
2022-11-29T13:04:49.278Z,98433.98
2022-11-29T13:07:26.452Z,98433.29
2022-11-29T13:10:35.902Z,98438.50
2022-11-29T13:13:25.405Z,98435.66
2022-11-29T13:19:39.309Z,98437.50
2022-11-29T13:22:22.365Z,98438.13
2022-11-29T13:24:57.686Z,98441.42
2022-11-29T13:27:32.260Z,98440.36
2022-11-29T13:30:01.032Z,98443.77
2022-11-29T13:32:35.260Z,98442.27
2022-11-29T13:35:19.208Z,98446.08
2022-11-29T13:37:57.382Z,98452.23
2022-11-29T13:40:46.811Z,98457.91
2022-11-29T13:43:17.758Z,98457.33
2022-11-29T13:45:48.491Z,98463.31
2022-11-29T13:48:28.409Z,98460.27
2022-11-29T13:50:57.757Z,98468.02
2022-11-29T13:53:45.254Z,98472.02
2022-11-29T13:56:48.595Z,98473.02
2022-11-29T13:59:27.723Z,98474.30
2022-11-29T14:01:57.117Z,98475.76
2022-11-29T14:04:27.661Z,98477.92
2022-11-29T14:07:12.571Z,98482.58
2022-11-29T14:09:43.434Z,98483.70
2022-11-29T14:12:27.075Z,98487.95
2022-11-29T14:15:16.712Z,98487.11
2022-11-29T14:17:53.777Z,98491.03
2022-11-29T14:20:30.457Z,98489.26
2022-11-29T14:23:04.638Z,98488.56
2022-11-29T14:25:51.265Z,98493.94
2022-11-29T14:28:22.908Z,98487.24
2022-11-29T14:30:55.018Z,98490.73
2022-11-29T14:33:37.340Z,98496.48
2022-11-29T14:36:23.728Z,98492.29
2022-11-29T14:39:04.461Z,98494.61
2022-11-29T14:42:01.537Z,98487.32
2022-11-29T14:44:32.076Z,98486.58
2022-11-29T14:47:26.560Z,98488.17
2022-11-29T14:49:57.018Z,98483.27
2022-11-29T14:52:29.126Z,98482.56
2022-11-29T14:55:20.402Z,98489.30
2022-11-29T14:57:48.435Z,98495.52
2022-11-29T15:00:19.234Z,98490.48
2022-11-29T15:03:21.335Z,98493.14
2022-11-29T15:05:57.691Z,98498.42
2022-11-29T15:08:35.721Z,98497.25
2022-11-29T15:11:32.187Z,98497.63
2022-11-29T15:14:07.459Z,98499.63
2022-11-29T15:17:19.605Z,98500.23
2022-11-29T15:20:22.117Z,98502.54
2022-11-29T15:22:55.484Z,98508.88
2022-11-29T15:25:26.396Z,98510.06
2022-11-29T15:28:06.144Z,98509.95
2022-11-29T15:30:39.560Z,98504.34
2022-11-29T15:33:19.325Z,98504.21
2022-11-29T15:36:08.667Z,98507.05
2022-11-29T15:38:50.616Z,98502.83
2022-11-29T15:41:35.658Z,98504.50
2022-11-29T15:44:06.993Z,98507.52
2022-11-29T15:46:35.866Z,98512.55
2022-11-29T15:49:31.179Z,98517.67
2022-11-29T15:52:05.726Z,98519.75
2022-11-29T15:54:38.900Z,98516.01
2022-11-29T15:57:16.024Z,98519.16
2022-11-29T15:59:53.737Z,98522.42
2022-11-29T16:02:31.362Z,98523.04
2022-11-29T16:05:25.223Z,98523.77
2022-11-29T16:07:57.591Z,98523.96
2022-11-29T16:10:52.722Z,98524.61
2022-11-29T16:13:39.122Z,98524.05
2022-11-29T16:16:13.439Z,98528.77
2022-11-29T16:18:44.262Z,98533.08
2022-11-29T16:21:25.237Z,98535.59
2022-11-29T16:23:54.045Z,98536.85
2022-11-29T16:26:35.955Z,98540.14
2022-11-29T16:29:04.787Z,98542.75
2022-11-29T16:31:35.701Z,98544.77
2022-11-29T16:34:14.123Z,98542.88
2022-11-29T16:36:42.159Z,98543.11
2022-11-29T16:39:23.238Z,98545.32
2022-11-29T16:42:08.869Z,98546.95
2022-11-29T16:44:39.781Z,98553.40
2022-11-29T16:47:18.810Z,98557.63
2022-11-29T16:50:09.644Z,98558.52
2022-11-29T16:52:37.567Z,98561.69
2022-11-29T16:55:05.617Z,98558.48
2022-11-29T16:57:33.849Z,98563.04
2022-11-29T17:00:01.958Z,98558.60
2022-11-29T17:02:30.245Z,98563.96
2022-11-29T17:04:58.646Z,98567.22
2022-11-29T17:07:32.147Z,98569.17
2022-11-29T17:10:00.364Z,98573.69
2022-11-29T17:12:28.276Z,98572.92
2022-11-29T17:14:56.314Z,98574.83
2022-11-29T17:17:24.226Z,98574.85
2022-11-29T17:19:52.144Z,98575.27
2022-11-29T17:22:20.103Z,98579.17
2022-11-29T17:24:48.790Z,98578.33
2022-11-29T17:27:16.865Z,98577.27
2022-11-29T17:29:44.782Z,98578.92
2022-11-29T17:32:12.741Z,98575.70
2022-11-29T17:34:40.726Z,98576.81
2022-11-29T17:37:08.626Z,98576.08
2022-11-29T17:39:36.559Z,98577.42
2022-11-29T17:42:04.554Z,98577.83
2022-11-29T17:44:34.001Z,98586.70
2022-11-29T17:47:01.890Z,98586.45
2022-11-29T17:49:29.816Z,98585.38
2022-11-29T17:51:57.756Z,98583.55
2022-11-29T17:54:26.072Z,98583.43
2022-11-29T17:56:54.299Z,98586.89
2022-11-29T17:59:22.296Z,98586.48
2022-11-29T18:01:50.246Z,98581.13
2022-11-29T18:04:18.460Z,98579.29
2022-11-29T18:06:50.267Z,98578.80
2022-11-29T18:09:19.794Z,98581.67
2022-11-29T18:11:49.975Z,98583.06
2022-11-29T18:14:22.751Z,98581.14
2022-11-29T18:16:52.084Z,98581.91
2022-11-29T18:19:22.105Z,98584.98
2022-11-29T18:21:50.569Z,98589.48
2022-11-29T18:24:18.863Z,98583.42
2022-11-29T18:26:47.210Z,98582.13
2022-11-29T18:29:15.347Z,98580.89
2022-11-29T18:31:45.227Z,98578.50
2022-11-29T18:34:14.674Z,98579.27
2022-11-29T18:36:48.549Z,98577.47
2022-11-29T18:39:19.701Z,98577.88
2022-11-29T18:41:49.537Z,98579.45
2022-11-29T18:44:19.963Z,98581.60
2022-11-29T18:46:48.107Z,98581.34
2022-11-29T18:49:20.962Z,98582.49
2022-11-29T18:51:49.984Z,98580.18
2022-11-29T18:54:19.251Z,98587.22
2022-11-29T18:56:50.180Z,98586.44
2022-11-29T18:59:18.365Z,98587.16
2022-11-29T19:01:48.551Z,98587.82
2022-11-29T19:04:19.422Z,98593.16
2022-11-29T19:06:48.259Z,98591.20
2022-11-29T19:09:20.930Z,98596.23
2022-11-29T19:11:52.195Z,98601.15
2022-11-29T19:14:20.212Z,98600.86
2022-11-29T19:16:50.870Z,98604.60
2022-11-29T19:19:19.073Z,98602.16
2022-11-29T19:21:47.885Z,98598.19
2022-11-29T19:24:17.994Z,98600.46
2022-11-29T19:26:48.131Z,98602.33
2022-11-29T19:29:17.400Z,98601.19
2022-11-29T19:31:45.451Z,98604.27
2022-11-29T19:34:13.925Z,98606.30
2022-11-29T19:36:43.730Z,98609.60
2022-11-29T19:39:17.039Z,98606.30
2022-11-29T19:41:47.046Z,98608.53
2022-11-29T19:44:15.293Z,98612.33
2022-11-29T19:46:48.823Z,98613.26
2022-11-29T19:49:16.921Z,98618.54
2022-11-29T19:51:44.872Z,98621.70
2022-11-29T19:54:13.147Z,98623.17
2022-11-29T19:56:41.157Z,98622.09
2022-11-29T19:59:09.387Z,98620.13
2022-11-29T20:01:42.675Z,98621.03
2022-11-29T20:04:13.380Z,98619.44
2022-11-29T20:06:41.834Z,98619.73
2022-11-29T20:09:12.176Z,98620.70
2022-11-29T20:11:40.107Z,98618.80
2022-11-29T20:14:10.539Z,98618.44
2022-11-29T20:16:39.263Z,98624.50
2022-11-29T20:19:13.161Z,98630.68
2022-11-29T20:21:47.812Z,98635.27
2022-11-29T20:24:16.726Z,98633.05
2022-11-29T20:26:46.824Z,98639.52
2022-11-29T20:29:15.953Z,98639.52
2022-11-29T20:31:50.043Z,98640.04
2022-11-29T20:34:20.696Z,98638.05
2022-11-29T20:37:43.614Z,98638.21
2022-11-29T20:40:14.800Z,98639.64
2022-11-29T20:43:15.898Z,98637.08
2022-11-29T20:45:44.106Z,98632.46
2022-11-29T20:48:22.893Z,98636.77
2022-11-29T20:50:58.458Z,98634.09
2022-11-29T20:53:35.673Z,98632.71
2022-11-29T20:56:05.286Z,98634.05
2022-11-29T20:58:33.463Z,98636.83
2022-11-29T21:01:01.836Z,98636.04
2022-11-29T21:03:30.296Z,98637.30
2022-11-29T21:06:02.124Z,98635.97
2022-11-29T21:08:30.219Z,98639.63
2022-11-29T21:11:06.900Z,98640.73
2022-11-29T21:13:35.266Z,98643.00
2022-11-29T21:16:03.790Z,98646.95
2022-11-29T21:18:32.441Z,98647.08
2022-11-29T21:21:54.005Z,98648.13
2022-11-29T21:24:34.185Z,98654.55
2022-11-29T21:27:03.302Z,98652.56
2022-11-29T21:29:31.528Z,98650.16
2022-11-29T21:32:00.992Z,98653.45
2022-11-29T21:34:30.639Z,98650.55
2022-11-29T21:36:59.861Z,98651.62
2022-11-29T21:39:33.873Z,98650.55
2022-11-29T21:42:02.882Z,98651.33
2022-11-29T21:44:30.892Z,98651.41
2022-11-29T21:46:58.899Z,98646.45
2022-11-29T21:49:26.812Z,98646.41
2022-11-29T21:51:57.638Z,98646.86
2022-11-29T21:54:25.964Z,98653.98
2022-11-29T21:56:54.331Z,98656.67
2022-11-29T21:59:24.917Z,98654.97
2022-11-29T22:01:52.992Z,98658.92
2022-11-29T22:04:21.095Z,98657.70
2022-11-29T22:06:49.057Z,98657.52
2022-11-29T22:09:17.119Z,98657.70
2022-11-29T22:11:45.730Z,98659.48
2022-11-29T22:14:18.932Z,98654.64
2022-11-29T22:16:51.645Z,98656.57
2022-11-29T22:19:21.941Z,98656.72
2022-11-29T22:21:52.414Z,98654.03
2022-11-29T22:24:22.973Z,98650.91
2022-11-29T22:26:52.193Z,98647.90
2022-11-29T22:29:20.736Z,98642.65
2022-11-29T22:31:53.051Z,98649.84
2022-11-29T22:34:22.854Z,98652.09
2022-11-29T22:36:51.052Z,98650.22
2022-11-29T22:39:19.006Z,98649.56
2022-11-29T22:41:53.928Z,98651.95
2022-11-29T22:44:23.537Z,98643.42
2022-11-29T22:46:51.579Z,98640.81
2022-11-29T22:49:19.554Z,98638.58
2022-11-29T22:51:47.536Z,98640.42
2022-11-29T22:54:16.570Z,98645.98
2022-11-29T22:56:45.558Z,98646.72
2022-11-29T22:59:14.047Z,98647.61
2022-11-29T23:01:42.514Z,98648.34
2022-11-29T23:04:12.300Z,98647.86
2022-11-29T23:06:45.480Z,98650.62
2022-11-29T23:09:17.088Z,98654.53
2022-11-29T23:11:46.162Z,98662.82
2022-11-29T23:14:14.114Z,98661.04
2022-11-29T23:16:42.868Z,98660.42
2022-11-29T23:19:11.010Z,98661.23
2022-11-29T23:21:40.716Z,98665.96
2022-11-29T23:24:09.496Z,98665.38
2022-11-29T23:26:40.483Z,98662.41
2022-11-29T23:29:19.577Z,98659.65
2022-11-29T23:31:49.229Z,98652.98
2022-11-29T23:34:17.691Z,98656.39
2022-11-29T23:36:51.164Z,98656.03
2022-11-29T23:39:21.131Z,98664.53
2022-11-29T23:41:49.023Z,98660.35
2022-11-29T23:44:17.024Z,98657.21
2022-11-29T23:46:44.860Z,98653.59
2022-11-29T23:49:12.762Z,98645.94
2022-11-29T23:51:40.705Z,98653.91
2022-11-29T23:54:08.647Z,98651.35
2022-11-29T23:56:36.524Z,98654.94
2022-11-29T23:59:04.507Z,98654.23
